Dover Air Force Base Dover US
ICAO: KDOV
IATA: DOV
Category: Large
Scheduled Services: No

Elevation: 24 ft
TransAlt. 18000 ft.

Airport Communications:
APP:132.425
ATIS:135.05
CLNC DEL:125.55
DEP:32.3
GND:118.875
PMSV METRO:34.2
COMD POST:134.1
PTD:134.1
MILLVILLE RDO:111.4
TWR:126.35

KDOV Zoom In..

If you have problems with the map follow the link
https://www.worldairports.se/pages/airport.php?
ICAO=KDOV

Runways:

(A) RW 01 length 9602 ft width 200 ft
ILS 109.95 / hdg 13

(B) RW 14 length 12903 ft width 150 ft
---- / hdg 136

(C) RW 19 length 9602 ft width 200 ft
ILS 111.90 / hdg 193

(D) RW 32 length 12903 ft width 150 ft
---- / hdg 316

Location; KDOV
Day. 08 / Time. 18.56 Zulu
* Altimeter: 30.44
* Temperature: 07° c. 44.6°f.
* Wind from: 100° Speed 08 kn.
Dewpoint: -01° c.
Visibility: 10 Statute Miles.
Clouds: Clear (automated report).

KDOV 081856Z AUTO 10008KT 10SM CLR 07/M01 A3044 RMK AO2 SLP311 T00741008 $


Wind From 100°
Speed 08 kn.

 
 
jpsmedia worldairports.se 2019   terms of use